sensor_id;sensor_type;location;lat;lon;timestamp;temperature;humidity
54540;SHT30;40438;52.992;18.604;2023-07-20T00:01:01;16.05;82.72
54540;SHT30;40438;52.992;18.604;2023-07-20T00:03:27;16.06;82.70
54540;SHT30;40438;52.992;18.604;2023-07-20T00:05:53;16.09;82.47
54540;SHT30;40438;52.992;18.604;2023-07-20T00:08:20;16.14;82.41
54540;SHT30;40438;52.992;18.604;2023-07-20T00:10:46;16.12;82.68
54540;SHT30;40438;52.992;18.604;2023-07-20T00:13:12;16.13;82.86
54540;SHT30;40438;52.992;18.604;2023-07-20T00:15:38;16.06;82.96
54540;SHT30;40438;52.992;18.604;2023-07-20T00:18:04;16.00;82.62
54540;SHT30;40438;52.992;18.604;2023-07-20T00:20:30;15.93;83.25
54540;SHT30;40438;52.992;18.604;2023-07-20T00:22:56;15.87;83.59
54540;SHT30;40438;52.992;18.604;2023-07-20T00:25:23;15.85;83.46
54540;SHT30;40438;52.992;18.604;2023-07-20T00:27:49;15.85;83.35
54540;SHT30;40438;52.992;18.604;2023-07-20T00:30:15;15.87;83.46
54540;SHT30;40438;52.992;18.604;2023-07-20T00:32:43;15.86;83.36
54540;SHT30;40438;52.992;18.604;2023-07-20T00:35:09;15.85;83.53
54540;SHT30;40438;52.992;18.604;2023-07-20T00:37:35;15.82;83.57
54540;SHT30;40438;52.992;18.604;2023-07-20T00:40:01;15.82;83.48
54540;SHT30;40438;52.992;18.604;2023-07-20T00:42:28;15.87;83.43
54540;SHT30;40438;52.992;18.604;2023-07-20T00:44:54;15.89;83.29
54540;SHT30;40438;52.992;18.604;2023-07-20T00:47:19;15.89;83.26
54540;SHT30;40438;52.992;18.604;2023-07-20T00:49:46;15.96;83.05
54540;SHT30;40438;52.992;18.604;2023-07-20T00:52:13;15.96;83.04
54540;SHT30;40438;52.992;18.604;2023-07-20T00:54:39;15.97;83.00
54540;SHT30;40438;52.992;18.604;2023-07-20T00:57:07;16.05;82.87
54540;SHT30;40438;52.992;18.604;2023-07-20T00:59:35;16.06;82.79
54540;SHT30;40438;52.992;18.604;2023-07-20T01:02:01;16.07;82.66
54540;SHT30;40438;52.992;18.604;2023-07-20T01:04:27;16.10;82.65
54540;SHT30;40438;52.992;18.604;2023-07-20T01:06:57;16.12;82.82
54540;SHT30;40438;52.992;18.604;2023-07-20T01:09:30;16.14;83.45
54540;SHT30;40438;52.992;18.604;2023-07-20T01:12:02;16.20;83.85
54540;SHT30;40438;52.992;18.604;2023-07-20T01:14:31;16.21;84.08
54540;SHT30;40438;52.992;18.604;2023-07-20T01:16:59;16.21;84.38
54540;SHT30;40438;52.992;18.604;2023-07-20T01:19:25;16.26;84.40
54540;SHT30;40438;52.992;18.604;2023-07-20T01:21:57;16.23;83.14
54540;SHT30;40438;52.992;18.604;2023-07-20T01:24:51;16.14;82.92
54540;SHT30;40438;52.992;18.604;2023-07-20T01:30:36;16.05;83.65
54540;SHT30;40438;52.992;18.604;2023-07-20T01:33:08;16.01;83.82
54540;SHT30;40438;52.992;18.604;2023-07-20T01:35:36;16.01;83.67
54540;SHT30;40438;52.992;18.604;2023-07-20T01:38:02;15.99;83.54
54540;SHT30;40438;52.992;18.604;2023-07-20T01:40:29;16.01;83.37
54540;SHT30;40438;52.992;18.604;2023-07-20T01:42:55;16.03;83.36
54540;SHT30;40438;52.992;18.604;2023-07-20T01:45:21;16.06;82.88
54540;SHT30;40438;52.992;18.604;2023-07-20T01:47:46;16.05;82.79
54540;SHT30;40438;52.992;18.604;2023-07-20T01:50:14;16.01;82.85
54540;SHT30;40438;52.992;18.604;2023-07-20T01:52:39;15.93;83.04
54540;SHT30;40438;52.992;18.604;2023-07-20T01:55:06;15.86;83.36
54540;SHT30;40438;52.992;18.604;2023-07-20T01:57:32;15.86;83.68
54540;SHT30;40438;52.992;18.604;2023-07-20T01:59:58;15.80;84.18
54540;SHT30;40438;52.992;18.604;2023-07-20T02:02:26;15.79;84.86
54540;SHT30;40438;52.992;18.604;2023-07-20T02:04:52;15.76;85.40
54540;SHT30;40438;52.992;18.604;2023-07-20T02:07:19;15.82;85.25
54540;SHT30;40438;52.992;18.604;2023-07-20T02:09:45;15.73;85.50
54540;SHT30;40438;52.992;18.604;2023-07-20T02:12:13;15.66;85.60
54540;SHT30;40438;52.992;18.604;2023-07-20T02:14:40;15.78;85.30
54540;SHT30;40438;52.992;18.604;2023-07-20T02:17:05;15.80;85.09
54540;SHT30;40438;52.992;18.604;2023-07-20T02:19:31;15.90;84.98
54540;SHT30;40438;52.992;18.604;2023-07-20T02:21:57;15.79;85.48
54540;SHT30;40438;52.992;18.604;2023-07-20T02:24:24;15.83;85.74
54540;SHT30;40438;52.992;18.604;2023-07-20T02:26:50;15.82;85.93
54540;SHT30;40438;52.992;18.604;2023-07-20T02:29:16;15.85;85.94
54540;SHT30;40438;52.992;18.604;2023-07-20T02:31:42;15.86;86.05
54540;SHT30;40438;52.992;18.604;2023-07-20T02:34:08;15.90;86.03
54540;SHT30;40438;52.992;18.604;2023-07-20T02:36:34;15.96;85.55
54540;SHT30;40438;52.992;18.604;2023-07-20T02:39:00;15.94;85.29
54540;SHT30;40438;52.992;18.604;2023-07-20T02:41:28;15.94;85.25
54540;SHT30;40438;52.992;18.604;2023-07-20T02:43:54;15.93;85.29
54540;SHT30;40438;52.992;18.604;2023-07-20T02:46:19;15.90;85.49
54540;SHT30;40438;52.992;18.604;2023-07-20T02:48:45;15.83;85.70
54540;SHT30;40438;52.992;18.604;2023-07-20T02:51:11;15.80;85.77
54540;SHT30;40438;52.992;18.604;2023-07-20T02:53:37;15.78;86.07
54540;SHT30;40438;52.992;18.604;2023-07-20T02:56:03;15.76;86.22
54540;SHT30;40438;52.992;18.604;2023-07-20T02:58:30;15.80;86.24
54540;SHT30;40438;52.992;18.604;2023-07-20T03:00:56;15.85;86.25
54540;SHT30;40438;52.992;18.604;2023-07-20T03:03:22;15.93;86.19
54540;SHT30;40438;52.992;18.604;2023-07-20T03:05:47;16.00;86.21
54540;SHT30;40438;52.992;18.604;2023-07-20T03:08:13;16.10;86.12
54540;SHT30;40438;52.992;18.604;2023-07-20T03:10:39;16.17;85.98
54540;SHT30;40438;52.992;18.604;2023-07-20T03:13:05;16.21;85.83
54540;SHT30;40438;52.992;18.604;2023-07-20T03:15:33;16.21;85.78
54540;SHT30;40438;52.992;18.604;2023-07-20T03:18:00;16.20;85.72
54540;SHT30;40438;52.992;18.604;2023-07-20T03:20:27;16.23;85.77
54540;SHT30;40438;52.992;18.604;2023-07-20T03:22:53;16.21;85.83
54540;SHT30;40438;52.992;18.604;2023-07-20T03:25:19;16.21;86.00
54540;SHT30;40438;52.992;18.604;2023-07-20T03:27:45;16.20;86.09
54540;SHT30;40438;52.992;18.604;2023-07-20T03:30:11;16.26;86.16
54540;SHT30;40438;52.992;18.604;2023-07-20T03:32:39;16.27;86.22
54540;SHT30;40438;52.992;18.604;2023-07-20T03:35:06;16.30;86.18
54540;SHT30;40438;52.992;18.604;2023-07-20T03:37:32;16.33;86.10
54540;SHT30;40438;52.992;18.604;2023-07-20T03:39:58;16.31;86.04
54540;SHT30;40438;52.992;18.604;2023-07-20T03:42:24;16.36;86.21
54540;SHT30;40438;52.992;18.604;2023-07-20T03:44:50;16.33;86.16
54540;SHT30;40438;52.992;18.604;2023-07-20T03:47:16;16.38;86.11
54540;SHT30;40438;52.992;18.604;2023-07-20T03:49:43;16.40;86.02
54540;SHT30;40438;52.992;18.604;2023-07-20T03:52:08;16.42;85.94
54540;SHT30;40438;52.992;18.604;2023-07-20T03:54:34;16.42;85.97
54540;SHT30;40438;52.992;18.604;2023-07-20T03:57:00;16.36;86.11
54540;SHT30;40438;52.992;18.604;2023-07-20T03:59:26;16.41;86.13
54540;SHT30;40438;52.992;18.604;2023-07-20T04:01:52;16.40;86.06
54540;SHT30;40438;52.992;18.604;2023-07-20T04:04:18;16.45;86.08
54540;SHT30;40438;52.992;18.604;2023-07-20T04:06:45;16.48;85.99
54540;SHT30;40438;52.992;18.604;2023-07-20T04:09:11;16.57;85.83
54540;SHT30;40438;52.992;18.604;2023-07-20T04:11:38;16.67;85.65
54540;SHT30;40438;52.992;18.604;2023-07-20T04:14:04;16.71;85.45
54540;SHT30;40438;52.992;18.604;2023-07-20T04:16:30;16.76;85.40
54540;SHT30;40438;52.992;18.604;2023-07-20T04:18:56;16.80;85.09
54540;SHT30;40438;52.992;18.604;2023-07-20T04:21:22;16.85;84.73
54540;SHT30;40438;52.992;18.604;2023-07-20T04:23:49;16.89;84.33
54540;SHT30;40438;52.992;18.604;2023-07-20T04:26:15;16.94;83.88
54540;SHT30;40438;52.992;18.604;2023-07-20T04:28:41;16.96;83.14
54540;SHT30;40438;52.992;18.604;2023-07-20T04:31:10;16.95;82.45
54540;SHT30;40438;52.992;18.604;2023-07-20T04:33:36;16.88;81.94
54540;SHT30;40438;52.992;18.604;2023-07-20T04:36:02;16.88;81.68
54540;SHT30;40438;52.992;18.604;2023-07-20T04:38:32;16.89;81.66
54540;SHT30;40438;52.992;18.604;2023-07-20T04:41:08;16.94;80.75
54540;SHT30;40438;52.992;18.604;2023-07-20T04:43:41;16.96;79.88
54540;SHT30;40438;52.992;18.604;2023-07-20T04:46:07;16.98;79.89
54540;SHT30;40438;52.992;18.604;2023-07-20T04:48:36;16.96;79.84
54540;SHT30;40438;52.992;18.604;2023-07-20T04:51:02;16.98;79.52
54540;SHT30;40438;52.992;18.604;2023-07-20T04:53:29;16.96;79.41
54540;SHT30;40438;52.992;18.604;2023-07-20T04:55:55;16.95;79.66
54540;SHT30;40438;52.992;18.604;2023-07-20T04:58:24;16.96;81.02
54540;SHT30;40438;52.992;18.604;2023-07-20T05:00:51;16.89;81.81
54540;SHT30;40438;52.992;18.604;2023-07-20T05:03:17;16.80;82.83
54540;SHT30;40438;52.992;18.604;2023-07-20T05:05:44;16.69;83.30
54540;SHT30;40438;52.992;18.604;2023-07-20T05:08:11;16.58;84.24
54540;SHT30;40438;52.992;18.604;2023-07-20T05:10:37;16.54;84.36
54540;SHT30;40438;52.992;18.604;2023-07-20T05:13:02;16.38;84.77
54540;SHT30;40438;52.992;18.604;2023-07-20T05:15:30;16.37;84.92
54540;SHT30;40438;52.992;18.604;2023-07-20T05:17:59;16.30;85.19
54540;SHT30;40438;52.992;18.604;2023-07-20T05:20:25;16.27;85.61
54540;SHT30;40438;52.992;18.604;2023-07-20T05:22:51;16.21;85.78
54540;SHT30;40438;52.992;18.604;2023-07-20T05:25:17;16.16;85.92
54540;SHT30;40438;52.992;18.604;2023-07-20T05:27:42;16.17;86.17
54540;SHT30;40438;52.992;18.604;2023-07-20T05:30:09;16.17;86.17
54540;SHT30;40438;52.992;18.604;2023-07-20T05:32:36;16.14;86.37
54540;SHT30;40438;52.992;18.604;2023-07-20T05:35:02;16.14;86.45
54540;SHT30;40438;52.992;18.604;2023-07-20T05:37:28;16.16;86.29
54540;SHT30;40438;52.992;18.604;2023-07-20T05:39:54;16.18;86.52
54540;SHT30;40438;52.992;18.604;2023-07-20T05:42:20;16.21;86.18
54540;SHT30;40438;52.992;18.604;2023-07-20T05:44:45;16.21;86.18
54540;SHT30;40438;52.992;18.604;2023-07-20T05:47:11;16.12;86.39
54540;SHT30;40438;52.992;18.604;2023-07-20T05:49:38;16.17;86.46
54540;SHT30;40438;52.992;18.604;2023-07-20T05:52:05;16.23;86.41
54540;SHT30;40438;52.992;18.604;2023-07-20T05:54:31;16.20;86.19
54540;SHT30;40438;52.992;18.604;2023-07-20T05:56:56;16.18;86.44
54540;SHT30;40438;52.992;18.604;2023-07-20T05:59:22;16.24;86.29
54540;SHT30;40438;52.992;18.604;2023-07-20T06:01:48;16.26;86.47
54540;SHT30;40438;52.992;18.604;2023-07-20T06:04:14;16.33;86.22
54540;SHT30;40438;52.992;18.604;2023-07-20T06:06:41;16.41;85.99
54540;SHT30;40438;52.992;18.604;2023-07-20T06:09:07;16.51;85.52
54540;SHT30;40438;52.992;18.604;2023-07-20T06:11:33;16.52;85.50
54540;SHT30;40438;52.992;18.604;2023-07-20T06:13:59;16.55;85.13
54540;SHT30;40438;52.992;18.604;2023-07-20T06:16:25;16.68;84.86
54540;SHT30;40438;52.992;18.604;2023-07-20T06:18:51;16.78;83.86
54540;SHT30;40438;52.992;18.604;2023-07-20T06:21:17;16.89;83.77
54540;SHT30;40438;52.992;18.604;2023-07-20T06:23:44;16.80;83.43
54540;SHT30;40438;52.992;18.604;2023-07-20T06:26:10;16.86;83.70
54540;SHT30;40438;52.992;18.604;2023-07-20T06:28:35;16.98;83.59
54540;SHT30;40438;52.992;18.604;2023-07-20T06:31:02;17.09;81.95
54540;SHT30;40438;52.992;18.604;2023-07-20T06:33:28;17.10;80.73
54540;SHT30;40438;52.992;18.604;2023-07-20T06:35:54;17.13;80.00
54540;SHT30;40438;52.992;18.604;2023-07-20T06:38:19;17.17;80.09
54540;SHT30;40438;52.992;18.604;2023-07-20T06:40:47;17.20;80.05
54540;SHT30;40438;52.992;18.604;2023-07-20T06:43:13;17.23;80.13
54540;SHT30;40438;52.992;18.604;2023-07-20T06:45:39;17.24;80.12
54540;SHT30;40438;52.992;18.604;2023-07-20T06:48:06;17.33;80.15
54540;SHT30;40438;52.992;18.604;2023-07-20T06:50:32;17.41;80.41
54540;SHT30;40438;52.992;18.604;2023-07-20T06:52:58;17.44;80.46
54540;SHT30;40438;52.992;18.604;2023-07-20T06:55:23;17.57;80.54
54540;SHT30;40438;52.992;18.604;2023-07-20T06:57:51;17.55;80.71
54540;SHT30;40438;52.992;18.604;2023-07-20T07:00:17;17.61;80.89
54540;SHT30;40438;52.992;18.604;2023-07-20T07:02:43;17.58;80.90
54540;SHT30;40438;52.992;18.604;2023-07-20T07:05:11;17.65;80.97
54540;SHT30;40438;52.992;18.604;2023-07-20T07:07:37;17.63;81.19
54540;SHT30;40438;52.992;18.604;2023-07-20T07:10:03;17.64;81.33
54540;SHT30;40438;52.992;18.604;2023-07-20T07:12:29;17.63;81.60
54540;SHT30;40438;52.992;18.604;2023-07-20T07:14:56;17.74;80.90
54540;SHT30;40438;52.992;18.604;2023-07-20T07:17:22;17.75;80.29
54540;SHT30;40438;52.992;18.604;2023-07-20T07:19:48;17.75;79.54
54540;SHT30;40438;52.992;18.604;2023-07-20T07:22:14;17.68;79.95
54540;SHT30;40438;52.992;18.604;2023-07-20T07:24:39;17.71;79.28
54540;SHT30;40438;52.992;18.604;2023-07-20T07:27:06;17.74;78.02
54540;SHT30;40438;52.992;18.604;2023-07-20T07:29:31;17.74;76.37
54540;SHT30;40438;52.992;18.604;2023-07-20T07:31:59;17.88;76.05
54540;SHT30;40438;52.992;18.604;2023-07-20T07:34:24;17.96;75.55
54540;SHT30;40438;52.992;18.604;2023-07-20T07:36:50;18.25;75.59
54540;SHT30;40438;52.992;18.604;2023-07-20T07:39:16;18.26;75.87
54540;SHT30;40438;52.992;18.604;2023-07-20T07:41:42;18.42;76.11
54540;SHT30;40438;52.992;18.604;2023-07-20T07:44:10;18.46;76.39
54540;SHT30;40438;52.992;18.604;2023-07-20T07:46:35;18.56;76.28
54540;SHT30;40438;52.992;18.604;2023-07-20T07:49:03;18.70;76.52
54540;SHT30;40438;52.992;18.604;2023-07-20T07:51:28;18.81;75.65
54540;SHT30;40438;52.992;18.604;2023-07-20T07:53:54;18.85;75.45
54540;SHT30;40438;52.992;18.604;2023-07-20T07:56:20;19.08;73.94
54540;SHT30;40438;52.992;18.604;2023-07-20T07:58:46;19.06;73.90
54540;SHT30;40438;52.992;18.604;2023-07-20T08:01:11;19.25;73.78
54540;SHT30;40438;52.992;18.604;2023-07-20T08:03:37;19.25;73.71
54540;SHT30;40438;52.992;18.604;2023-07-20T08:06:04;19.23;74.71
54540;SHT30;40438;52.992;18.604;2023-07-20T08:08:31;19.14;74.42
54540;SHT30;40438;52.992;18.604;2023-07-20T08:10:57;19.14;74.71
54540;SHT30;40438;52.992;18.604;2023-07-20T08:13:23;19.23;75.01
54540;SHT30;40438;52.992;18.604;2023-07-20T08:15:50;19.28;74.21
54540;SHT30;40438;52.992;18.604;2023-07-20T08:18:16;19.45;73.50
54540;SHT30;40438;52.992;18.604;2023-07-20T08:20:43;19.46;73.10
54540;SHT30;40438;52.992;18.604;2023-07-20T08:23:10;19.36;73.60
54540;SHT30;40438;52.992;18.604;2023-07-20T08:25:36;19.50;72.80
54540;SHT30;40438;52.992;18.604;2023-07-20T08:28:02;19.63;70.23
54540;SHT30;40438;52.992;18.604;2023-07-20T08:30:39;19.80;69.41
54540;SHT30;40438;52.992;18.604;2023-07-20T08:33:05;20.00;69.51
54540;SHT30;40438;52.992;18.604;2023-07-20T08:35:31;20.11;68.33
54540;SHT30;40438;52.992;18.604;2023-07-20T08:37:56;20.22;66.78
54540;SHT30;40438;52.992;18.604;2023-07-20T08:40:24;20.29;64.84
54540;SHT30;40438;52.992;18.604;2023-07-20T08:42:50;20.45;64.62
54540;SHT30;40438;52.992;18.604;2023-07-20T08:45:16;20.75;63.91
54540;SHT30;40438;52.992;18.604;2023-07-20T08:47:43;20.96;62.96
54540;SHT30;40438;52.992;18.604;2023-07-20T08:50:11;21.04;63.24
54540;SHT30;40438;52.992;18.604;2023-07-20T08:52:38;21.13;62.02
54540;SHT30;40438;52.992;18.604;2023-07-20T08:55:04;20.96;62.73
54540;SHT30;40438;52.992;18.604;2023-07-20T08:57:33;21.06;61.38
54540;SHT30;40438;52.992;18.604;2023-07-20T09:00:00;20.96;60.48
54540;SHT30;40438;52.992;18.604;2023-07-20T09:02:27;20.83;61.57
54540;SHT30;40438;52.992;18.604;2023-07-20T09:04:52;20.73;62.03
54540;SHT30;40438;52.992;18.604;2023-07-20T09:07:19;20.60;63.02
54540;SHT30;40438;52.992;18.604;2023-07-20T09:09:45;20.55;64.50
54540;SHT30;40438;52.992;18.604;2023-07-20T09:12:14;20.63;63.99
54540;SHT30;40438;52.992;18.604;2023-07-20T09:14:42;20.75;63.74
54540;SHT30;40438;52.992;18.604;2023-07-20T09:17:12;20.77;63.92
54540;SHT30;40438;52.992;18.604;2023-07-20T09:19:38;20.99;62.65
54540;SHT30;40438;52.992;18.604;2023-07-20T09:22:05;20.97;63.65
54540;SHT30;40438;52.992;18.604;2023-07-20T09:24:32;21.10;62.39
54540;SHT30;40438;52.992;18.604;2023-07-20T09:27:01;21.20;62.49
54540;SHT30;40438;52.992;18.604;2023-07-20T09:29:27;21.37;62.39
54540;SHT30;40438;52.992;18.604;2023-07-20T09:32:01;21.59;61.24
54540;SHT30;40438;52.992;18.604;2023-07-20T09:34:28;21.79;59.21
54540;SHT30;40438;52.992;18.604;2023-07-20T09:36:55;21.92;58.53
54540;SHT30;40438;52.992;18.604;2023-07-20T09:39:21;21.89;58.27
54540;SHT30;40438;52.992;18.604;2023-07-20T09:41:47;21.82;59.01
54540;SHT30;40438;52.992;18.604;2023-07-20T09:44:14;21.76;57.65
54540;SHT30;40438;52.992;18.604;2023-07-20T09:46:45;21.72;57.32
54540;SHT30;40438;52.992;18.604;2023-07-20T09:49:13;21.72;57.08
54540;SHT30;40438;52.992;18.604;2023-07-20T09:51:39;21.89;55.59
54540;SHT30;40438;52.992;18.604;2023-07-20T09:54:06;21.99;57.60
54540;SHT30;40438;52.992;18.604;2023-07-20T09:56:33;22.13;56.82
54540;SHT30;40438;52.992;18.604;2023-07-20T09:58:59;22.23;54.71
54540;SHT30;40438;52.992;18.604;2023-07-20T10:01:26;22.27;55.82
54540;SHT30;40438;52.992;18.604;2023-07-20T10:03:54;22.33;55.75
54540;SHT30;40438;52.992;18.604;2023-07-20T10:06:24;22.40;55.58
54540;SHT30;40438;52.992;18.604;2023-07-20T10:08:53;22.41;55.30
54540;SHT30;40438;52.992;18.604;2023-07-20T10:11:22;22.54;55.46
54540;SHT30;40438;52.992;18.604;2023-07-20T10:13:51;22.63;54.38
54540;SHT30;40438;52.992;18.604;2023-07-20T10:16:22;22.57;54.12
54540;SHT30;40438;52.992;18.604;2023-07-20T10:18:59;22.48;54.57
54540;SHT30;40438;52.992;18.604;2023-07-20T10:21:29;22.50;53.85
54540;SHT30;40438;52.992;18.604;2023-07-20T10:23:56;22.61;53.88
54540;SHT30;40438;52.992;18.604;2023-07-20T10:26:22;22.79;53.22
54540;SHT30;40438;52.992;18.604;2023-07-20T10:28:49;23.20;51.61
54540;SHT30;40438;52.992;18.604;2023-07-20T10:31:15;23.30;51.60
54540;SHT30;40438;52.992;18.604;2023-07-20T10:33:43;23.71;50.33
54540;SHT30;40438;52.992;18.604;2023-07-20T10:36:10;24.05;50.18
54540;SHT30;40438;52.992;18.604;2023-07-20T10:38:40;24.46;47.58
54540;SHT30;40438;52.992;18.604;2023-07-20T10:41:16;24.70;46.67
54540;SHT30;40438;52.992;18.604;2023-07-20T10:43:42;24.52;47.62
54540;SHT30;40438;52.992;18.604;2023-07-20T10:46:10;24.53;47.51
54540;SHT30;40438;52.992;18.604;2023-07-20T10:48:59;24.39;48.20
54540;SHT30;40438;52.992;18.604;2023-07-20T10:51:25;24.39;48.45
54540;SHT30;40438;52.992;18.604;2023-07-20T10:53:52;24.57;48.89
54540;SHT30;40438;52.992;18.604;2023-07-20T10:56:20;24.53;47.55
54540;SHT30;40438;52.992;18.604;2023-07-20T10:58:46;24.36;48.42
54540;SHT30;40438;52.992;18.604;2023-07-20T11:01:13;24.18;48.99
54540;SHT30;40438;52.992;18.604;2023-07-20T11:03:39;24.01;49.60
54540;SHT30;40438;52.992;18.604;2023-07-20T11:06:29;24.06;48.66
54540;SHT30;40438;52.992;18.604;2023-07-20T11:09:10;24.00;48.95
54540;SHT30;40438;52.992;18.604;2023-07-20T11:11:37;23.85;49.59
54540;SHT30;40438;52.992;18.604;2023-07-20T11:14:04;23.73;49.37
54540;SHT30;40438;52.992;18.604;2023-07-20T11:16:38;23.78;49.06
54540;SHT30;40438;52.992;18.604;2023-07-20T11:19:05;23.78;48.92
54540;SHT30;40438;52.992;18.604;2023-07-20T11:21:36;23.67;48.97
54540;SHT30;40438;52.992;18.604;2023-07-20T11:24:05;23.56;49.27
54540;SHT30;40438;52.992;18.604;2023-07-20T11:26:39;23.43;48.16
54540;SHT30;40438;52.992;18.604;2023-07-20T11:29:05;23.33;49.31
54540;SHT30;40438;52.992;18.604;2023-07-20T11:31:35;23.22;49.80
54540;SHT30;40438;52.992;18.604;2023-07-20T11:34:00;23.19;48.74
54540;SHT30;40438;52.992;18.604;2023-07-20T11:36:26;23.19;49.32
54540;SHT30;40438;52.992;18.604;2023-07-20T11:38:53;23.50;49.87
54540;SHT30;40438;52.992;18.604;2023-07-20T11:41:20;23.54;49.00
54540;SHT30;40438;52.992;18.604;2023-07-20T11:43:47;23.50;49.40
54540;SHT30;40438;52.992;18.604;2023-07-20T11:46:13;23.43;47.10
54540;SHT30;40438;52.992;18.604;2023-07-20T11:48:39;23.33;46.32
54540;SHT30;40438;52.992;18.604;2023-07-20T11:51:04;23.16;47.31
54540;SHT30;40438;52.992;18.604;2023-07-20T11:53:31;23.11;47.99
54540;SHT30;40438;52.992;18.604;2023-07-20T11:55:57;23.23;48.66
54540;SHT30;40438;52.992;18.604;2023-07-20T11:58:24;23.35;47.54
54540;SHT30;40438;52.992;18.604;2023-07-20T12:00:50;23.32;47.38
54540;SHT30;40438;52.992;18.604;2023-07-20T12:03:16;23.35;46.97
54540;SHT30;40438;52.992;18.604;2023-07-20T12:05:41;23.26;47.73
54540;SHT30;40438;52.992;18.604;2023-07-20T12:08:07;23.16;48.39
54540;SHT30;40438;52.992;18.604;2023-07-20T12:10:33;23.08;47.74
54540;SHT30;40438;52.992;18.604;2023-07-20T12:13:01;23.05;47.39
54540;SHT30;40438;52.992;18.604;2023-07-20T12:15:29;22.94;48.29
54540;SHT30;40438;52.992;18.604;2023-07-20T12:17:57;22.94;48.70
54540;SHT30;40438;52.992;18.604;2023-07-20T12:20:27;23.29;49.24
54540;SHT30;40438;52.992;18.604;2023-07-20T12:22:56;23.61;47.42
54540;SHT30;40438;52.992;18.604;2023-07-20T12:25:23;23.73;46.04
54540;SHT30;40438;52.992;18.604;2023-07-20T12:28:00;23.77;45.59
54540;SHT30;40438;52.992;18.604;2023-07-20T12:30:26;23.63;45.78
54540;SHT30;40438;52.992;18.604;2023-07-20T12:32:53;23.46;45.53
54540;SHT30;40438;52.992;18.604;2023-07-20T12:35:19;23.14;47.03
54540;SHT30;40438;52.992;18.604;2023-07-20T12:37:45;22.48;49.82
54540;SHT30;40438;52.992;18.604;2023-07-20T12:40:11;22.08;51.19
54540;SHT30;40438;52.992;18.604;2023-07-20T12:42:37;21.57;52.92
54540;SHT30;40438;52.992;18.604;2023-07-20T12:45:04;21.31;54.32
54540;SHT30;40438;52.992;18.604;2023-07-20T12:47:30;20.82;56.79
54540;SHT30;40438;52.992;18.604;2023-07-20T12:49:57;20.57;59.11
54540;SHT30;40438;52.992;18.604;2023-07-20T12:52:22;20.31;62.06
54540;SHT30;40438;52.992;18.604;2023-07-20T12:54:48;20.04;63.06
54540;SHT30;40438;52.992;18.604;2023-07-20T12:57:14;19.84;64.25
54540;SHT30;40438;52.992;18.604;2023-07-20T12:59:40;19.69;64.58
54540;SHT30;40438;52.992;18.604;2023-07-20T13:02:05;19.63;65.42
54540;SHT30;40438;52.992;18.604;2023-07-20T13:04:31;19.64;65.66
54540;SHT30;40438;52.992;18.604;2023-07-20T13:06:59;19.63;66.08
54540;SHT30;40438;52.992;18.604;2023-07-20T13:09:25;19.60;66.20
54540;SHT30;40438;52.992;18.604;2023-07-20T13:11:50;19.60;66.82
54540;SHT30;40438;52.992;18.604;2023-07-20T13:14:16;19.59;66.54
54540;SHT30;40438;52.992;18.604;2023-07-20T13:16:42;19.54;66.25
54540;SHT30;40438;52.992;18.604;2023-07-20T13:19:08;19.60;65.85
54540;SHT30;40438;52.992;18.604;2023-07-20T13:21:34;19.59;65.41
54540;SHT30;40438;52.992;18.604;2023-07-20T13:24:01;19.62;64.47
54540;SHT30;40438;52.992;18.604;2023-07-20T13:26:27;19.54;63.99
54540;SHT30;40438;52.992;18.604;2023-07-20T13:28:53;19.54;64.32
54540;SHT30;40438;52.992;18.604;2023-07-20T13:31:18;19.56;64.05
54540;SHT30;40438;52.992;18.604;2023-07-20T13:33:44;19.53;64.80
54540;SHT30;40438;52.992;18.604;2023-07-20T13:36:10;19.47;64.74
54540;SHT30;40438;52.992;18.604;2023-07-20T13:38:36;19.47;65.25
54540;SHT30;40438;52.992;18.604;2023-07-20T13:41:03;19.35;66.29
54540;SHT30;40438;52.992;18.604;2023-07-20T13:43:29;19.35;66.73
54540;SHT30;40438;52.992;18.604;2023-07-20T13:45:54;19.35;66.51
54540;SHT30;40438;52.992;18.604;2023-07-20T13:48:20;19.29;67.03
54540;SHT30;40438;52.992;18.604;2023-07-20T13:50:46;19.22;67.56
54540;SHT30;40438;52.992;18.604;2023-07-20T13:53:12;19.21;66.88
54540;SHT30;40438;52.992;18.604;2023-07-20T13:55:38;19.21;66.71
54540;SHT30;40438;52.992;18.604;2023-07-20T13:58:05;19.28;66.17
54540;SHT30;40438;52.992;18.604;2023-07-20T14:00:30;19.54;65.49
54540;SHT30;40438;52.992;18.604;2023-07-20T14:02:56;20.08;63.83
54540;SHT30;40438;52.992;18.604;2023-07-20T14:05:22;20.48;62.47
54540;SHT30;40438;52.992;18.604;2023-07-20T14:07:48;20.87;60.05
54540;SHT30;40438;52.992;18.604;2023-07-20T14:10:14;21.11;60.11
54540;SHT30;40438;52.992;18.604;2023-07-20T14:12:40;21.51;58.34
54540;SHT30;40438;52.992;18.604;2023-07-20T14:15:07;21.96;57.29
54540;SHT30;40438;52.992;18.604;2023-07-20T14:17:33;22.48;56.74
54540;SHT30;40438;52.992;18.604;2023-07-20T14:19:59;23.15;55.89
54540;SHT30;40438;52.992;18.604;2023-07-20T14:22:25;23.70;53.93
54540;SHT30;40438;52.992;18.604;2023-07-20T14:24:51;24.25;52.41
54540;SHT30;40438;52.992;18.604;2023-07-20T14:27:16;24.62;51.59
54540;SHT30;40438;52.992;18.604;2023-07-20T14:29:42;25.04;50.86
54540;SHT30;40438;52.992;18.604;2023-07-20T14:32:09;24.96;49.87
54540;SHT30;40438;52.992;18.604;2023-07-20T14:34:35;24.56;50.09
54540;SHT30;40438;52.992;18.604;2023-07-20T14:37:01;24.16;50.64
54540;SHT30;40438;52.992;18.604;2023-07-20T14:39:27;23.83;52.65
54540;SHT30;40438;52.992;18.604;2023-07-20T14:41:53;23.51;53.15
54540;SHT30;40438;52.992;18.604;2023-07-20T14:44:19;23.25;53.94
54540;SHT30;40438;52.992;18.604;2023-07-20T14:46:45;23.06;54.59
54540;SHT30;40438;52.992;18.604;2023-07-20T14:49:12;22.85;55.21
54540;SHT30;40438;52.992;18.604;2023-07-20T14:51:38;22.69;56.16
54540;SHT30;40438;52.992;18.604;2023-07-20T14:54:04;22.58;57.33
54540;SHT30;40438;52.992;18.604;2023-07-20T14:56:30;22.41;59.67
54540;SHT30;40438;52.992;18.604;2023-07-20T14:58:56;22.27;60.54
54540;SHT30;40438;52.992;18.604;2023-07-20T15:01:22;22.13;61.03
54540;SHT30;40438;52.992;18.604;2023-07-20T15:03:48;21.80;61.93
54540;SHT30;40438;52.992;18.604;2023-07-20T15:06:15;21.61;62.81
54540;SHT30;40438;52.992;18.604;2023-07-20T15:08:40;21.59;62.00
54540;SHT30;40438;52.992;18.604;2023-07-20T15:11:06;21.37;62.76
54540;SHT30;40438;52.992;18.604;2023-07-20T15:13:32;21.21;64.01
54540;SHT30;40438;52.992;18.604;2023-07-20T15:15:58;21.06;64.49